This is the latest recevied weather packets stored in our database for station/object OE3AOG. If no packets are shown the sender has not sent any weather packets the latest 1 day(s).
| Time | Temp. | Humidity | Pressure | Rain* | Wind** | Luminosity | Snow |
|---|---|---|---|---|---|---|---|
| 1778024731 | 12.78° C | 69% | 1005.6 hPa | 0 mm | 0.45 m/s, 55° | 0 W/m² | - |
| 1778024122 | 12.78° C | 70% | 1005.5 hPa | 0 mm | 0 m/s | 0 W/m² | - |
| 1778023531 | 12.78° C | 70% | 1005.4 hPa | 0 mm | 0.45 m/s, 142° | 0 W/m² | - |
| 1778022923 | 12.78° C | 69% | 1005.2 hPa | 0 mm | 0.45 m/s, 120° | 0 W/m² | - |
| 1778022331 | 13.33° C | 68% | 1005.2 hPa | 0 mm | 0.45 m/s, 111° | 0 W/m² | - |
| 1778021722 | 13.33° C | 67% | 1005.2 hPa | 0 mm | 0.45 m/s, 133° | 0 W/m² | - |
| 1778021130 | 13.33° C | 66% | 1005.1 hPa | 0 mm | 0.45 m/s, 130° | 0 W/m² | - |
| 1778020523 | 13.89° C | 64% | 1005 hPa | 0 mm | 0.45 m/s, 124° | 0 W/m² | - |
| 1778019923 | 14.44° C | 63% | 1004.8 hPa | 0 mm | 0 m/s | 0 W/m² | - |
| 1778019331 | 13.89° C | 63% | 1004.8 hPa | 0 mm | 0.45 m/s, 140° | 0 W/m² | - |
| 1778018723 | 13.89° C | 63% | 1004.8 hPa | 0 mm | 0.45 m/s, 135° | 0 W/m² | - |
| 1778018131 | 13.89° C | 63% | 1004.6 hPa | 0 mm | 0.45 m/s, 141° | 0 W/m² | - |
| 1778017523 | 14.44° C | 62% | 1004.6 hPa | 0 mm | 0.45 m/s, 39° | 0 W/m² | - |
| 1778016931 | 14.44° C | 61% | 1004.5 hPa | 0 mm | 0.89 m/s, 110° | 0 W/m² | - |
| 1778016331 | 16.11° C | 57% | 1004.4 hPa | 0 mm | 0.45 m/s, 23° | 0 W/m² | - |
| 1778015723 | 17.22° C | 52% | 1004.3 hPa | 0 mm | 0 m/s | 0 W/m² | - |
| 1778015131 | 17.22° C | 51% | 1004.1 hPa | 0 mm | 0.89 m/s, 154° | 0 W/m² | - |
| 1778014523 | 17.78° C | 51% | 1004 hPa | 0 mm | 1.34 m/s, 164° | 0 W/m² | - |
| 1778013931 | 17.78° C | 50% | 1003.8 hPa | 0 mm | 2.24 m/s, 167° | 0 W/m² | - |
| 1778013322 | 17.78° C | 50% | 1003.7 hPa | 0 mm | 2.24 m/s, 173° | 0 W/m² | - |
| 1778012731 | 17.78° C | 50% | 1003.7 hPa | 0 mm | 2.24 m/s, 168° | 0 W/m² | - |
| 1778012123 | 17.78° C | 50% | 1003.6 hPa | 0 mm | 2.24 m/s, 175° | 0 W/m² | - |
| 1778011531 | 18.33° C | 50% | 1003.6 hPa | 0 mm | 2.24 m/s, 176° | 0 W/m² | - |
| 1778010923 | 18.33° C | 49% | 1003.6 hPa | 0 mm | 2.24 m/s, 178° | 0 W/m² | - |
| 1778010315 | 18.33° C | 49% | 1003.7 hPa | 0 mm | 2.68 m/s, 175° | 0 W/m² | - |
* Rain latest hour (hover to see other rain measurements)
** Current wind speed in m/s (hover to see current wind gust speed)